Terminal Aerodrome Forecast
Issued by NWS

Home | Current Version | Previous Version | Text Only | Print | Product List | Glossary On
Versions: 1 2 3 4 5 6 7 8 9 10 11 12 13 14 15 16 17 18 19 20 21
000
FTUS41 KGYX 291720
TAFPSM
TAF
KPSM 291720Z 2918/3018 VRB04KT P6SM SKC
     FM292300 VRB03KT P6SM SCT200
     FM300600 19005KT P6SM SCT120 BKN200
     FM301500 18010KT P6SM SCT030 BKN050 OVC080=

USA.gov is the U.S. government's official web portal to all federal, state and local government web resources and services.